Friday, November 17, 2017, 7:37 PM GMT
Back to Local

CWWE, Western Head, N. S.

Location: , , Canada Lat: 43.983
Local Time: 7:37 PM GMT (19:37 GMT) Lon: -64.667
Time Zone: GMT Elev: 29 ft

Show me the last for .
Show Coded

Time T Td Feel RH Dir Speed Gust Alt SLP Vis Weather Sky Remarks
2017-11-17 19:00 43 38 34 80 290° 15 22 - 29.46 0 Peak wind: 28 mph (25 kts) from 290° at 12 min
2017-11-17 18:00 44 37 34 75 270° 20 31 - 29.44 0 Peak wind: 31 mph (27 kts) from 270° at 58 min
2017-11-17 17:00 45 40 35 82 260° 15 31 - 29.42 0 Peak wind: 34 mph (30 kts) from 280° at 37 min
2017-11-17 16:00 46 40 37 77 260° 20 31 - 29.42 0 Peak wind: 32 mph (28 kts) from 260° at 25 min
2017-11-17 15:00 46 38 36 75 260° 21 30 - 29.44 0 Peak wind: 31 mph (27 kts) from 250° at 05 min
2017-11-17 14:00 46 40 37 79 250° 21 29 - 29.44 0 Peak wind: 32 mph (28 kts) from 250° at 04 min
2017-11-17 13:00 44 41 34 89 250° 22 29 - 29.43 0 Peak wind: 29 mph (26 kts) from 270° at 29 min
2017-11-17 12:00 45 40 35 85 250° 20 28 - 29.44 0 Peak wind: 29 mph (26 kts) from 240° at 07 min
2017-11-17 11:00 45 41 35 88 250° 22 31 - 29.43 0 Peak wind: 31 mph (27 kts) from 250° at 51 min
2017-11-17 10:00 45 42 35 88 250° 20 28 - 29.42 0 Peak wind: 29 mph (26 kts) from 270° at 10 min
2017-11-17 09:00 46 44 36 94 250° 21 30 - 29.41 0 Peak wind: 32 mph (28 kts) from 250° at 26 min
2017-11-17 08:00 50 48 - 90 220° 21 - - 29.40 0 Peak wind: 35 mph (31 kts) from 220° at 13 min
2017-11-17 07:00 51 47 - 86 210° 24 31 - 29.42 0 Peak wind: 33 mph (29 kts) from 210° at 06 min
2017-11-17 06:00 55 53 - 93 200° 24 31 - 29.44 0 Peak wind: 32 mph (28 kts) from 180° at 49 min
2017-11-17 05:00 55 54 - 95 150° 22 - - 29.49 0 Peak wind: 46 mph (40 kts) from 130° at 00 min
1-hr Precip Total: 0.03"
2017-11-17 04:00 53 52 - 96 130° 33 41 - 29.53 0 Peak wind: 42 mph (37 kts) from 130° at 46 min
Pressure falling rapidly
1-hr Precip Total: 0.03"
2017-11-17 03:00 53 51 - 96 130° 31 39 - 29.61 0 Peak wind: 39 mph (34 kts) from 130° at 55 min
Pressure falling rapidly
1-hr Precip Total: 0.05"
2017-11-17 02:00 53 51 - 94 130° 29 36 - 29.69 0 Peak wind: 35 mph (31 kts) from 130° at 52 min
1-hr Precip Total: 0.07"
2017-11-17 01:00 54 50 - 85 140° 31 39 - 29.72 0 Peak wind: 39 mph (34 kts) from 140° at 53 min
2017-11-17 00:00 54 50 - 86 140° 26 33 - 29.76 0 Peak wind: 37 mph (33 kts) from 130° at 23 min
2017-11-16 23:00 53 49 - 86 130° 29 40 - 29.80 0 Peak wind: 40 mph (35 kts) from 130° at 59 min
2017-11-16 22:00 53 50 - 89 130° 23 29 - 29.83 0 Peak wind: 32 mph (28 kts) from 120° at 22 min
2017-11-16 21:00 51 49 - 92 110° 24 30 - 29.86 0 Peak wind: 32 mph (28 kts) from 110° at 47 min
Pressure falling rapidly
2017-11-16 20:00 49 47 42 95 110° 21 - - 29.92 0 Peak wind: 26 mph (23 kts) from 120° at 00 min

Support USWX by starting your Amazon purchase here.